createdAt,value
2019-05-05T00:00:39.893Z,97.91
2019-05-05T00:03:26.186Z,97.79
2019-05-05T00:05:56.250Z,97.56
2019-05-05T00:08:24.801Z,97.33
2019-05-05T00:11:12.596Z,97.55
2019-05-05T00:13:45.116Z,97.83
2019-05-05T00:16:31.024Z,97.81
2019-05-05T00:18:59.773Z,97.99
2019-05-05T00:21:27.945Z,98.15
2019-05-05T00:23:56.145Z,98.16
2019-05-05T00:26:24.880Z,98.13
2019-05-05T00:28:55.397Z,98.03
2019-05-05T00:31:24.304Z,98.09
2019-05-05T00:33:54.429Z,98.09
2019-05-05T00:36:24.574Z,98.23
2019-05-05T00:38:55.204Z,98.17
2019-05-05T00:41:25.352Z,98.15
2019-05-05T00:43:55.341Z,98.14
2019-05-05T00:46:25.200Z,98.21
2019-05-05T00:48:55.068Z,98.07
2019-05-05T00:51:24.423Z,97.88
2019-05-05T00:53:55.315Z,97.85
2019-05-05T00:56:25.014Z,97.94
2019-05-05T00:58:55.325Z,97.94
2019-05-05T01:01:31.054Z,97.91
2019-05-05T01:04:00.301Z,97.95
2019-05-05T01:06:30.120Z,98.02
2019-05-05T01:08:58.301Z,97.97
2019-05-05T01:11:26.540Z,97.97
2019-05-05T01:13:54.864Z,97.93
2019-05-05T01:16:24.695Z,97.93
2019-05-05T01:18:55.189Z,97.91
2019-05-05T01:21:24.442Z,97.97
2019-05-05T01:23:54.853Z,97.99
2019-05-05T01:26:24.878Z,97.98
2019-05-05T01:28:53.198Z,97.99
2019-05-05T01:31:22.198Z,98.05
2019-05-05T01:33:54.105Z,98.08
2019-05-05T01:36:23.701Z,98.05
2019-05-05T01:38:59.710Z,98.04
2019-05-05T01:41:35.510Z,98.06
2019-05-05T01:44:05.103Z,97.92
2019-05-05T01:46:35.317Z,97.91
2019-05-05T01:49:05.322Z,97.85
2019-05-05T01:51:35.430Z,97.82
2019-05-05T01:54:05.159Z,97.79
2019-05-05T01:56:35.180Z,97.69
2019-05-05T01:59:05.191Z,97.44
2019-05-05T02:01:35.216Z,97.31
2019-05-05T02:04:05.431Z,97.07
2019-05-05T02:06:34.970Z,96.97
2019-05-05T02:09:05.271Z,97.00
2019-05-05T02:11:35.316Z,96.95
2019-05-05T02:14:05.107Z,97.06
2019-05-05T02:16:34.737Z,97.09
2019-05-05T02:19:04.973Z,97.19
2019-05-05T02:21:35.105Z,97.12
2019-05-05T02:24:05.223Z,97.06
2019-05-05T02:26:35.015Z,97.13
2019-05-05T02:29:17.377Z,97.16
2019-05-05T02:32:06.340Z,97.25
2019-05-05T02:34:35.988Z,97.30
2019-05-05T02:37:05.446Z,97.31
2019-05-05T02:39:35.355Z,97.59
2019-05-05T02:42:05.694Z,97.77
2019-05-05T02:44:34.793Z,97.68
2019-05-05T02:47:08.043Z,97.96
2019-05-05T02:49:36.205Z,97.68
2019-05-05T02:52:05.139Z,97.54
2019-05-05T02:54:34.052Z,97.65
2019-05-05T02:57:04.515Z,97.85
2019-05-05T02:59:35.293Z,97.81
2019-05-05T03:02:08.225Z,97.71
2019-05-05T03:04:36.389Z,97.70
2019-05-05T03:07:04.821Z,97.75
2019-05-05T03:09:34.670Z,97.65
2019-05-05T03:12:04.777Z,97.78
2019-05-05T03:14:34.112Z,97.94
2019-05-05T03:17:04.307Z,97.63
2019-05-05T03:19:33.938Z,97.69
2019-05-05T03:22:03.638Z,97.76
2019-05-05T03:24:34.087Z,97.72
2019-05-05T03:27:03.848Z,97.83
2019-05-05T03:29:33.585Z,97.70
2019-05-05T03:32:05.258Z,97.71
2019-05-05T03:34:34.366Z,97.71
2019-05-05T03:37:04.233Z,97.62
2019-05-05T03:39:34.033Z,97.53
2019-05-05T03:42:04.398Z,97.53
2019-05-05T03:44:40.225Z,97.74
2019-05-05T03:47:08.405Z,97.63
2019-05-05T03:49:36.585Z,97.47
2019-05-05T03:52:05.094Z,97.41
2019-05-05T03:54:34.274Z,97.31
2019-05-05T03:57:08.553Z,97.32
2019-05-05T03:59:39.892Z,97.39
2019-05-05T04:02:09.785Z,97.70
2019-05-05T04:04:39.596Z,97.65
2019-05-05T04:07:08.051Z,97.83
2019-05-05T04:09:36.632Z,97.77
2019-05-05T04:12:05.050Z,97.87
2019-05-05T04:14:34.803Z,97.92
2019-05-05T04:17:05.666Z,98.07
2019-05-05T04:19:35.474Z,98.19
2019-05-05T04:22:04.216Z,98.20
2019-05-05T04:24:34.192Z,98.03
2019-05-05T04:27:04.001Z,97.70
2019-05-05T04:29:34.516Z,97.52
2019-05-05T04:32:04.484Z,97.53
2019-05-05T04:34:34.741Z,97.56
2019-05-05T04:37:04.132Z,97.66
2019-05-05T04:39:34.287Z,97.53
2019-05-05T04:42:04.996Z,97.54
2019-05-05T04:44:34.649Z,97.58
2019-05-05T04:47:16.662Z,97.65
2019-05-05T04:49:53.811Z,97.82
2019-05-05T04:52:34.346Z,97.79
2019-05-05T04:55:03.903Z,97.55
2019-05-05T04:57:32.472Z,97.35
2019-05-05T05:00:00.683Z,97.30
2019-05-05T05:02:46.731Z,97.23
2019-05-05T05:05:16.544Z,97.09
2019-05-05T05:07:45.033Z,96.94
2019-05-05T05:10:13.837Z,96.85
2019-05-05T05:12:43.612Z,97.02
2019-05-05T05:15:11.980Z,97.15
2019-05-05T05:17:44.194Z,96.89
2019-05-05T05:20:13.993Z,96.78
2019-05-05T05:22:43.548Z,96.92
2019-05-05T05:25:13.595Z,96.89
2019-05-05T05:27:44.153Z,96.73
2019-05-05T05:30:13.766Z,96.81
2019-05-05T05:32:41.685Z,97.08
2019-05-05T05:35:09.925Z,96.98
2019-05-05T05:37:38.215Z,96.89
2019-05-05T05:40:14.487Z,96.78
2019-05-05T05:42:43.967Z,96.81
2019-05-05T05:45:26.360Z,96.68
2019-05-05T05:47:56.181Z,96.93
2019-05-05T05:50:26.017Z,96.89
2019-05-05T05:52:54.190Z,96.37
2019-05-05T05:55:23.798Z,96.15
2019-05-05T05:57:54.008Z,96.24
2019-05-05T06:00:23.739Z,96.24
2019-05-05T06:02:54.383Z,96.33
2019-05-05T06:05:23.759Z,96.58
2019-05-05T06:07:54.278Z,96.59
2019-05-05T06:10:26.644Z,96.36
2019-05-05T06:12:52.026Z,96.12
2019-05-05T06:15:20.215Z,96.10
2019-05-05T06:17:48.381Z,95.96
2019-05-05T06:20:16.881Z,96.34
2019-05-05T06:22:45.372Z,95.91
2019-05-05T06:25:15.870Z,95.93
2019-05-05T06:27:44.586Z,95.47
2019-05-05T06:30:13.809Z,94.86
2019-05-05T06:32:43.746Z,95.03
2019-05-05T06:35:13.902Z,95.50
2019-05-05T06:37:54.612Z,94.99
2019-05-05T06:40:25.447Z,94.54
2019-05-05T06:43:13.893Z,94.67
2019-05-05T06:45:55.498Z,94.78
2019-05-05T06:48:23.787Z,94.36
2019-05-05T06:50:51.905Z,94.40
2019-05-05T06:53:20.074Z,93.95
2019-05-05T06:55:48.253Z,94.89
2019-05-05T06:58:16.421Z,95.15
2019-05-05T07:00:44.917Z,94.58
2019-05-05T07:03:14.010Z,93.76
2019-05-05T07:05:43.767Z,93.95
2019-05-05T07:08:13.775Z,94.01
2019-05-05T07:10:44.271Z,94.17
2019-05-05T07:13:13.874Z,93.33
2019-05-05T07:15:43.790Z,93.58
2019-05-05T07:18:14.067Z,94.13
2019-05-05T07:20:43.572Z,93.86
2019-05-05T07:23:14.293Z,93.70
2019-05-05T07:25:45.303Z,94.18
2019-05-05T07:28:14.526Z,93.22
2019-05-05T07:30:44.234Z,93.44
2019-05-05T07:33:14.866Z,91.80
2019-05-05T07:36:00.221Z,93.16
2019-05-05T07:38:24.419Z,92.16
2019-05-05T07:40:54.539Z,92.54
2019-05-05T07:43:23.974Z,92.74
2019-05-05T07:45:54.008Z,92.23
2019-05-05T07:48:24.179Z,91.66
2019-05-05T07:51:02.134Z,90.74
2019-05-05T07:53:24.416Z,90.24
2019-05-05T07:55:54.199Z,91.57
2019-05-05T07:58:24.143Z,90.89
2019-05-05T08:00:54.105Z,90.81
2019-05-05T08:03:23.659Z,90.91
2019-05-05T08:05:54.379Z,92.08
2019-05-05T08:08:24.321Z,92.01
2019-05-05T08:10:54.171Z,91.42
2019-05-05T08:13:24.352Z,91.77
2019-05-05T08:15:59.755Z,89.97
2019-05-05T08:18:29.062Z,91.12
2019-05-05T08:20:58.872Z,91.66
2019-05-05T08:23:44.756Z,91.90
2019-05-05T08:26:15.021Z,90.54
2019-05-05T08:28:54.452Z,90.61
2019-05-05T08:31:26.797Z,90.71
2019-05-05T08:33:54.962Z,90.70
2019-05-05T08:36:23.534Z,90.35
2019-05-05T08:38:51.785Z,89.81
2019-05-05T08:41:20.065Z,90.72
2019-05-05T08:43:48.533Z,91.03
2019-05-05T08:46:16.703Z,92.80
2019-05-05T08:48:45.186Z,93.24
2019-05-05T08:51:14.156Z,92.42
2019-05-05T08:53:47.358Z,92.10
2019-05-05T08:56:14.451Z,91.01
2019-05-05T08:58:43.756Z,91.93
2019-05-05T09:01:12.021Z,92.38
2019-05-05T09:03:40.196Z,92.31
2019-05-05T09:06:08.360Z,89.94
2019-05-05T09:08:36.818Z,89.15
2019-05-05T09:11:05.120Z,89.64
2019-05-05T09:13:34.014Z,90.01
2019-05-05T09:16:03.834Z,89.93
2019-05-05T09:18:33.933Z,90.35
2019-05-05T09:21:04.206Z,87.77
2019-05-05T09:23:34.663Z,89.24
2019-05-05T09:26:21.213Z,89.88
2019-05-05T09:28:51.309Z,87.23
2019-05-05T09:31:19.472Z,87.65
2019-05-05T09:33:47.655Z,89.18
2019-05-05T09:36:16.132Z,88.95
2019-05-05T09:38:45.068Z,86.11
2019-05-05T09:41:14.335Z,85.28
2019-05-05T09:43:44.642Z,86.84
2019-05-05T09:46:14.366Z,84.28
2019-05-05T09:48:44.052Z,84.89
2019-05-05T09:51:13.640Z,84.49
2019-05-05T09:53:42.006Z,85.36
2019-05-05T09:56:10.195Z,82.71
2019-05-05T09:58:38.711Z,82.68
2019-05-05T10:01:07.751Z,84.10
2019-05-05T10:03:35.930Z,82.90
2019-05-05T10:06:04.978Z,82.16
2019-05-05T10:08:34.066Z,84.08
2019-05-05T10:11:04.130Z,83.12
2019-05-05T10:13:33.753Z,83.20
2019-05-05T10:16:03.836Z,81.91
2019-05-05T10:18:34.690Z,78.90
2019-05-05T10:21:01.742Z,80.01
2019-05-05T10:23:31.819Z,76.65
2019-05-05T10:26:01.619Z,76.00
2019-05-05T10:28:30.229Z,79.84
2019-05-05T10:30:58.399Z,80.40
2019-05-05T10:33:26.567Z,81.29
2019-05-05T10:35:54.731Z,78.89
2019-05-05T10:38:23.566Z,76.90
2019-05-05T10:40:53.618Z,71.19
2019-05-05T10:43:23.839Z,74.50
2019-05-05T10:45:52.095Z,75.54
2019-05-05T10:48:20.258Z,73.88
2019-05-05T10:50:48.430Z,72.85
2019-05-05T10:53:16.592Z,72.75
2019-05-05T10:55:45.151Z,69.74
2019-05-05T10:58:13.834Z,71.88
2019-05-05T11:00:47.591Z,69.87
2019-05-05T11:03:15.752Z,72.74
2019-05-05T11:05:44.805Z,72.33
2019-05-05T11:08:13.700Z,70.81
2019-05-05T11:10:44.579Z,70.24
2019-05-05T11:13:12.188Z,75.93
2019-05-05T11:15:40.364Z,68.99
2019-05-05T11:18:08.967Z,68.28
2019-05-05T11:20:37.138Z,71.59
2019-05-05T11:23:05.624Z,64.99
2019-05-05T11:25:33.906Z,65.15
2019-05-05T11:28:03.705Z,66.99
2019-05-05T11:30:34.020Z,67.08
2019-05-05T11:33:16.050Z,65.19
2019-05-05T11:36:04.611Z,68.53
2019-05-05T11:38:33.903Z,64.42
2019-05-05T11:41:04.671Z,68.53
2019-05-05T11:43:33.785Z,62.31
2019-05-05T11:46:02.385Z,63.64
2019-05-05T11:48:30.539Z,64.45
2019-05-05T11:50:58.963Z,69.32
2019-05-05T11:53:27.136Z,67.87
2019-05-05T11:55:55.619Z,67.56
2019-05-05T11:58:24.832Z,64.21
2019-05-05T12:00:54.562Z,61.06
2019-05-05T12:03:23.040Z,64.95
2019-05-05T12:05:51.211Z,67.31
2019-05-05T12:08:19.381Z,63.86
2019-05-05T12:10:54.133Z,62.08
2019-05-05T12:13:22.385Z,63.38
2019-05-05T12:15:53.826Z,66.05
2019-05-05T12:18:23.741Z,65.45
2019-05-05T12:20:54.239Z,65.29
2019-05-05T12:23:22.238Z,66.98
2019-05-05T12:25:56.673Z,67.57
2019-05-05T12:28:26.305Z,70.17
2019-05-05T12:30:57.411Z,70.21
2019-05-05T12:33:25.573Z,70.72
2019-05-05T12:35:54.366Z,72.38
2019-05-05T12:38:24.115Z,69.74
2019-05-05T12:40:53.549Z,71.40
2019-05-05T12:43:22.066Z,69.76
2019-05-05T12:46:00.922Z,70.42
2019-05-05T12:48:43.803Z,75.36
2019-05-05T12:51:12.101Z,79.49
2019-05-05T12:53:40.269Z,81.20
2019-05-05T12:56:08.436Z,81.22
2019-05-05T12:58:36.595Z,84.15
2019-05-05T13:01:06.410Z,86.32
2019-05-05T13:03:34.729Z,86.82
2019-05-05T13:06:04.098Z,87.82
2019-05-05T13:08:34.020Z,88.39
2019-05-05T13:11:04.057Z,85.95
2019-05-05T13:13:34.399Z,83.22
2019-05-05T13:16:04.255Z,84.74
2019-05-05T13:18:33.966Z,83.15
2019-05-05T13:21:06.555Z,84.63
2019-05-05T13:23:45.101Z,83.93
2019-05-05T13:26:17.620Z,83.99
2019-05-05T13:28:45.783Z,85.05
2019-05-05T13:31:14.216Z,83.08
2019-05-05T13:33:44.276Z,79.71
2019-05-05T13:36:13.763Z,83.42
2019-05-05T13:38:43.843Z,84.41
2019-05-05T13:41:12.110Z,82.30
2019-05-05T13:43:40.286Z,81.77
2019-05-05T13:46:10.087Z,82.17
2019-05-05T13:48:38.267Z,83.34
2019-05-05T13:51:08.068Z,83.56
2019-05-05T13:53:36.244Z,87.53
2019-05-05T13:56:11.861Z,86.68
2019-05-05T13:58:34.409Z,84.77
2019-05-05T14:01:03.734Z,83.35
2019-05-05T14:03:34.150Z,83.03
2019-05-05T14:06:04.583Z,86.39
2019-05-05T14:08:36.000Z,77.74
2019-05-05T14:11:03.636Z,74.93
2019-05-05T14:13:34.116Z,77.83
2019-05-05T14:16:03.893Z,75.19
2019-05-05T14:18:32.470Z,79.97
2019-05-05T14:21:00.953Z,76.92
2019-05-05T14:23:30.780Z,77.85
2019-05-05T14:25:59.006Z,78.50
2019-05-05T14:28:27.191Z,76.77
2019-05-05T14:31:00.003Z,77.37
2019-05-05T14:33:31.360Z,74.88
2019-05-05T14:36:04.995Z,75.51
2019-05-05T14:38:44.419Z,73.25
2019-05-05T14:41:13.628Z,74.82
2019-05-05T14:43:43.774Z,76.71
2019-05-05T14:46:14.370Z,74.55
2019-05-05T14:48:44.068Z,73.12
2019-05-05T14:51:14.411Z,70.68
2019-05-05T14:53:43.758Z,74.99
2019-05-05T14:56:13.574Z,66.38
2019-05-05T14:58:43.714Z,71.98
2019-05-05T15:01:14.285Z,67.85
2019-05-05T15:03:41.945Z,66.54
2019-05-05T15:06:11.870Z,68.11
2019-05-05T15:08:56.497Z,69.81
2019-05-05T15:11:41.764Z,74.12
2019-05-05T15:14:10.038Z,71.87
2019-05-05T15:16:38.208Z,72.41
2019-05-05T15:19:06.388Z,73.76
2019-05-05T15:21:34.863Z,75.76
2019-05-05T15:24:03.078Z,79.77
2019-05-05T15:26:31.479Z,78.90
2019-05-05T15:29:01.757Z,81.82
2019-05-05T15:31:29.818Z,84.78
2019-05-05T15:33:57.997Z,85.33
2019-05-05T15:36:26.176Z,87.63
2019-05-05T15:38:55.219Z,90.45
2019-05-05T15:41:23.716Z,91.14
2019-05-05T15:43:51.888Z,90.55
2019-05-05T15:46:20.402Z,89.39
2019-05-05T15:48:48.582Z,89.59
2019-05-05T15:51:16.775Z,90.01
2019-05-05T15:53:44.935Z,89.98
2019-05-05T15:56:13.874Z,89.21
2019-05-05T15:58:43.549Z,88.54
2019-05-05T16:01:11.944Z,90.21
2019-05-05T16:03:40.116Z,91.07
2019-05-05T16:06:08.304Z,90.83
2019-05-05T16:08:36.485Z,90.92
2019-05-05T16:11:05.013Z,91.46
2019-05-05T16:13:35.164Z,92.29
2019-05-05T16:16:08.022Z,91.68
2019-05-05T16:18:37.846Z,91.36
2019-05-05T16:21:10.218Z,92.31
2019-05-05T16:23:46.070Z,91.14
2019-05-05T16:26:14.240Z,90.19
2019-05-05T16:28:44.501Z,91.72
2019-05-05T16:31:14.423Z,93.00
2019-05-05T16:33:44.125Z,93.08
2019-05-05T16:36:13.805Z,92.71
2019-05-05T16:38:43.575Z,92.70
2019-05-05T16:41:13.606Z,92.67
2019-05-05T16:43:44.103Z,92.97
2019-05-05T16:46:16.753Z,92.83
2019-05-05T16:48:43.939Z,92.88
2019-05-05T16:51:13.945Z,93.77
2019-05-05T16:53:42.396Z,92.88
2019-05-05T16:56:14.057Z,92.35
2019-05-05T16:58:44.887Z,92.18
2019-05-05T17:01:16.906Z,92.88
2019-05-05T17:03:45.856Z,93.05
2019-05-05T17:06:14.491Z,92.92
2019-05-05T17:08:44.380Z,92.49
2019-05-05T17:11:14.777Z,92.02
2019-05-05T17:13:49.766Z,92.58
2019-05-05T17:16:35.584Z,92.83
2019-05-05T17:19:20.597Z,92.51
2019-05-05T17:21:50.685Z,92.49
2019-05-05T17:24:19.151Z,92.43
2019-05-05T17:26:47.641Z,92.08
2019-05-05T17:29:16.116Z,92.57
2019-05-05T17:31:44.490Z,92.38
2019-05-05T17:34:13.744Z,92.62
2019-05-05T17:36:42.027Z,92.38
2019-05-05T17:39:10.204Z,92.47
2019-05-05T17:41:45.782Z,93.16
2019-05-05T17:44:15.590Z,92.83
2019-05-05T17:46:45.403Z,93.59
2019-05-05T17:49:15.539Z,93.38
2019-05-05T17:51:54.881Z,92.87
2019-05-05T17:54:27.689Z,93.13
2019-05-05T17:56:56.166Z,93.10
2019-05-05T17:59:24.646Z,93.40
2019-05-05T18:01:53.989Z,93.47
2019-05-05T18:04:22.844Z,94.09
2019-05-05T18:06:58.575Z,94.77
2019-05-05T18:09:28.701Z,94.97
2019-05-05T18:11:58.527Z,95.29
2019-05-05T18:14:31.028Z,95.49
2019-05-05T18:16:59.191Z,95.26
2019-05-05T18:19:27.391Z,94.28
2019-05-05T18:21:55.808Z,94.61
2019-05-05T18:24:24.410Z,94.99
2019-05-05T18:26:53.672Z,95.27
2019-05-05T18:29:24.121Z,95.56
2019-05-05T18:31:53.557Z,95.71
2019-05-05T18:34:23.604Z,95.90
2019-05-05T18:36:54.181Z,95.87
2019-05-05T18:39:22.200Z,95.76
2019-05-05T18:41:55.030Z,95.69
2019-05-05T18:44:24.850Z,95.61
2019-05-05T18:47:14.630Z,95.60
2019-05-05T18:49:41.425Z,95.60
2019-05-05T18:52:10.601Z,95.51
2019-05-05T18:54:38.785Z,95.81
2019-05-05T18:57:08.127Z,96.07
2019-05-05T18:59:36.378Z,96.17
2019-05-05T19:02:14.323Z,96.51
2019-05-05T19:04:48.694Z,96.87
2019-05-05T19:07:30.527Z,96.74
2019-05-05T19:09:59.043Z,96.46
2019-05-05T19:12:27.562Z,96.48
2019-05-05T19:14:55.729Z,96.96
2019-05-05T19:17:24.171Z,97.14
2019-05-05T19:19:54.970Z,97.14
2019-05-05T19:22:23.333Z,97.09
2019-05-05T19:24:51.519Z,96.91
2019-05-05T19:27:19.687Z,96.59
2019-05-05T19:29:47.944Z,96.65
2019-05-05T19:32:16.118Z,96.91
2019-05-05T19:34:44.393Z,97.15
2019-05-05T19:37:14.022Z,96.87
2019-05-05T19:39:42.546Z,96.84
2019-05-05T19:42:10.717Z,96.77
2019-05-05T19:44:38.904Z,96.84
2019-05-05T19:47:20.460Z,96.75
2019-05-05T19:49:50.284Z,96.56
2019-05-05T19:52:18.450Z,96.39
2019-05-05T19:54:47.661Z,97.03
2019-05-05T19:57:16.149Z,97.07
2019-05-05T19:59:44.789Z,97.12
2019-05-05T20:02:12.977Z,97.19
2019-05-05T20:04:41.156Z,97.31
2019-05-05T20:07:09.674Z,97.35
2019-05-05T20:09:37.852Z,97.16
2019-05-05T20:12:08.945Z,97.03
2019-05-05T20:14:37.475Z,97.03
2019-05-05T20:17:10.237Z,97.13
2019-05-05T20:19:40.058Z,97.17
2019-05-05T20:22:08.223Z,97.25
2019-05-05T20:24:36.411Z,97.38
2019-05-05T20:27:04.763Z,97.45
2019-05-05T20:29:36.742Z,97.48
2019-05-05T20:32:04.331Z,97.49
2019-05-05T20:34:50.517Z,97.47
2019-05-05T20:37:20.330Z,97.46
2019-05-05T20:39:48.517Z,97.44
2019-05-05T20:42:16.696Z,97.27
2019-05-05T20:44:44.881Z,97.34
2019-05-05T20:47:13.122Z,97.23
2019-05-05T20:49:41.302Z,97.19
2019-05-05T20:52:10.805Z,97.47
2019-05-05T20:54:39.294Z,97.47
2019-05-05T20:57:07.778Z,97.49
2019-05-05T20:59:36.255Z,97.48
2019-05-05T21:02:04.781Z,97.69
2019-05-05T21:04:34.535Z,97.74
2019-05-05T21:07:04.507Z,97.56
2019-05-05T21:09:34.541Z,97.45
2019-05-05T21:12:04.701Z,97.28
2019-05-05T21:14:37.213Z,97.13
2019-05-05T21:17:04.037Z,97.51
2019-05-05T21:19:34.518Z,97.60
2019-05-05T21:22:20.980Z,97.59
2019-05-05T21:24:49.125Z,97.62
2019-05-05T21:27:17.310Z,97.69
2019-05-05T21:29:45.785Z,97.44
2019-05-05T21:32:14.201Z,97.40
2019-05-05T21:34:44.346Z,97.37
2019-05-05T21:37:14.126Z,97.49
2019-05-05T21:39:42.188Z,97.31
2019-05-05T21:42:10.656Z,97.43
2019-05-05T21:44:38.827Z,97.52
2019-05-05T21:47:07.308Z,97.69
2019-05-05T21:49:35.478Z,97.63
2019-05-05T21:52:07.907Z,97.53
2019-05-05T21:54:43.923Z,97.51
2019-05-05T21:57:16.530Z,97.52
2019-05-05T21:59:54.822Z,97.57
2019-05-05T22:02:15.351Z,97.56
2019-05-05T22:04:43.633Z,97.51
2019-05-05T22:07:11.816Z,97.77
2019-05-05T22:09:40.057Z,97.51
2019-05-05T22:12:08.236Z,97.26
2019-05-05T22:14:36.406Z,97.25
2019-05-05T22:17:04.791Z,97.17
2019-05-05T22:19:44.525Z,97.66
2019-05-05T22:22:14.621Z,97.66
2019-05-05T22:24:44.401Z,97.42
2019-05-05T22:27:12.668Z,97.49
2019-05-05T22:29:41.098Z,97.32
2019-05-05T22:32:09.280Z,97.08
2019-05-05T22:34:37.447Z,97.18
2019-05-05T22:37:09.238Z,97.53
2019-05-05T22:39:35.524Z,97.66
2019-05-05T22:42:04.718Z,97.53
2019-05-05T22:44:33.925Z,97.23
2019-05-05T22:47:04.496Z,97.34
2019-05-05T22:49:32.066Z,97.31
2019-05-05T22:52:00.232Z,97.37
2019-05-05T22:54:28.672Z,97.67
2019-05-05T22:56:56.845Z,97.71
2019-05-05T22:59:26.175Z,97.69
2019-05-05T23:01:54.487Z,97.41
2019-05-05T23:04:24.305Z,97.40
2019-05-05T23:06:54.293Z,97.29
2019-05-05T23:09:22.482Z,97.09
2019-05-05T23:11:50.652Z,97.30
2019-05-05T23:14:28.124Z,97.21
2019-05-05T23:16:58.187Z,97.48
2019-05-05T23:19:28.020Z,97.57
2019-05-05T23:21:58.152Z,97.45
2019-05-05T23:24:37.127Z,97.61
2019-05-05T23:27:05.302Z,98.00
2019-05-05T23:29:34.161Z,98.03
2019-05-05T23:32:02.434Z,97.95
2019-05-05T23:34:30.904Z,97.99
2019-05-05T23:36:59.073Z,98.07
2019-05-05T23:39:27.561Z,97.97
2019-05-05T23:41:56.567Z,97.93
2019-05-05T23:44:24.749Z,98.08
2019-05-05T23:46:53.817Z,98.16
2019-05-05T23:49:24.170Z,98.25
2019-05-05T23:51:53.963Z,98.31
2019-05-05T23:54:24.562Z,98.18
2019-05-05T23:56:53.721Z,98.03
2019-05-05T23:59:24.145Z,97.94
